Time;durP1;ratioP1;P1;durP2;ratioP2;P2;SDS_P1;SDS_P2;PMS_P1;PMS_P2;Temp;Humidity;BMP_temperature;BMP_pressure;BME280_temperature;BME280_humidity;BME280_pressure;Samples;Min_cycle;Max_cycle;Signal;HPM_P1;HPM_P2
2024/03/31 00:02:10;;;;;;;38.55;29.73;;;8.20;99.90;;;;;;4986632;28;20489;-79
2024/03/31 00:04:36;;;;;;;52.42;42.78;;;8.20;99.90;;;;;;4957698;28;20080;-79
2024/03/31 00:07:03;;;;;;;77.32;63.88;;;8.30;99.90;;;;;;4973392;28;20042;-78
2024/03/31 00:09:28;;;;;;;95.10;74.70;;;8.20;99.90;;;;;;4967923;28;20051;-79
2024/03/31 00:11:54;;;;;;;76.32;65.15;;;8.00;99.90;;;;;;4973952;28;20076;-80
2024/03/31 00:14:20;;;;;;;118.80;93.45;;;7.90;99.90;;;;;;4956086;28;20132;-78
2024/03/31 00:16:46;;;;;;;77.85;65.13;;;7.90;99.90;;;;;;4990626;28;20053;-80
2024/03/31 00:19:11;;;;;;;99.65;80.05;;;7.90;99.90;;;;;;4953148;28;20043;-78
2024/03/31 00:21:37;;;;;;;67.28;54.40;;;7.90;99.90;;;;;;4961947;28;20384;-78
2024/03/31 00:24:03;;;;;;;65.68;53.75;;;7.90;99.90;;;;;;4940538;28;20043;-78
2024/03/31 00:26:28;;;;;;;40.10;33.05;;;7.80;99.90;;;;;;4974011;28;20040;-78
2024/03/31 00:28:54;;;;;;;47.35;38.58;;;7.70;99.90;;;;;;4973214;28;20411;-78
2024/03/31 00:31:19;;;;;;;52.58;40.10;;;7.80;99.90;;;;;;4970395;28;20042;-79
2024/03/31 00:33:48;;;;;;;41.00;30.52;;;7.80;99.90;;;;;;4984535;28;21587;-78
2024/03/31 00:36:13;;;;;;;37.15;29.33;;;7.80;99.90;;;;;;4988567;28;20429;-77
2024/03/31 00:38:39;;;;;;;35.03;27.98;;;7.70;99.90;;;;;;4980151;28;20121;-78
2024/03/31 00:41:04;;;;;;;28.05;22.98;;;7.80;99.90;;;;;;4973143;28;20065;-79
2024/03/31 00:43:30;;;;;;;40.28;29.00;;;7.90;99.90;;;;;;4971481;28;20050;-78
2024/03/31 00:45:55;;;;;;;33.97;27.02;;;8.00;99.90;;;;;;4986258;28;20117;-79
2024/03/31 00:48:21;;;;;;;33.45;26.05;;;7.90;99.90;;;;;;4953971;28;20129;-78
2024/03/31 00:50:47;;;;;;;33.08;25.40;;;7.70;99.90;;;;;;4986186;28;20043;-79
2024/03/31 00:53:12;;;;;;;40.28;25.70;;;7.50;99.90;;;;;;4970813;28;20481;-78
2024/03/31 00:55:38;;;;;;;33.05;25.40;;;7.50;99.90;;;;;;4953762;28;20623;-77
2024/03/31 00:58:03;;;;;;;33.95;25.70;;;7.30;99.90;;;;;;4972939;28;20025;-78
2024/03/31 01:00:29;;;;;;;30.58;23.05;;;7.40;99.90;;;;;;4955547;28;20369;-78
2024/03/31 01:02:55;;;;;;;27.95;20.95;;;7.50;99.90;;;;;;4967841;28;20031;-79
2024/03/31 01:05:20;;;;;;;33.25;22.90;;;7.70;99.90;;;;;;4952944;28;20034;-79
2024/03/31 01:07:46;;;;;;;35.00;26.00;;;7.80;99.90;;;;;;4969127;28;20039;-78
2024/03/31 01:10:11;;;;;;;34.92;27.60;;;7.70;99.90;;;;;;4974826;28;20033;-79
2024/03/31 01:12:37;;;;;;;35.13;27.05;;;7.50;99.90;;;;;;4960744;28;20774;-77
2024/03/31 01:15:03;;;;;;;41.20;29.00;;;7.40;99.90;;;;;;4968836;28;20070;-77
2024/03/31 01:17:28;;;;;;;30.15;23.58;;;7.30;99.90;;;;;;4966716;28;20027;-78
2024/03/31 01:19:54;;;;;;;39.47;29.38;;;7.40;99.90;;;;;;4970541;28;20026;-78
2024/03/31 01:22:19;;;;;;;38.47;26.73;;;7.50;99.90;;;;;;4971218;28;20040;-79
2024/03/31 01:24:45;;;;;;;43.03;34.38;;;7.50;99.90;;;;;;4970795;28;20030;-79
2024/03/31 01:27:11;;;;;;;28.38;22.52;;;7.50;99.90;;;;;;4985558;28;20030;-78
2024/03/31 01:29:36;;;;;;;37.65;28.10;;;7.70;99.90;;;;;;4957487;28;20044;-78
2024/03/31 01:32:02;;;;;;;41.40;31.40;;;7.70;99.90;;;;;;4958239;28;20044;-79
2024/03/31 01:34:28;;;;;;;41.30;30.88;;;7.50;99.90;;;;;;4959761;28;20102;-79
2024/03/31 01:36:53;;;;;;;47.60;35.05;;;7.40;99.90;;;;;;4983904;28;20026;-79
2024/03/31 01:39:19;;;;;;;45.92;35.15;;;7.20;99.90;;;;;;4982011;28;20047;-78
2024/03/31 01:41:47;;;;;;;42.67;32.55;;;7.10;99.90;;;;;;4952834;28;20113;-78
2024/03/31 01:44:13;;;;;;;47.67;34.22;;;7.10;99.90;;;;;;4970713;28;20042;-78
2024/03/31 01:46:38;;;;;;;50.53;33.53;;;7.10;99.90;;;;;;4954636;28;20037;-78
2024/03/31 01:49:04;;;;;;;52.38;37.17;;;7.10;99.90;;;;;;4970271;28;20058;-78
2024/03/31 01:51:29;;;;;;;51.28;36.17;;;7.10;99.90;;;;;;4960078;28;20400;-78
2024/03/31 01:53:55;;;;;;;49.33;36.83;;;7.20;99.90;;;;;;4984979;28;20489;-77
2024/03/31 01:56:20;;;;;;;58.92;40.85;;;7.30;99.90;;;;;;4969235;28;20042;-77
2024/03/31 01:58:46;;;;;;;58.38;43.72;;;7.20;99.90;;;;;;4974394;28;21534;-79
2024/03/31 02:01:11;;;;;;;62.55;43.58;;;7.20;99.90;;;;;;4967663;28;20045;-79
2024/03/31 02:03:37;;;;;;;51.42;38.53;;;7.10;99.90;;;;;;4967030;28;20031;-78
2024/03/31 02:06:09;;;;;;;56.97;42.05;;;7.20;99.90;;;;;;4954257;28;20034;-79
2024/03/31 02:08:35;;;;;;;61.38;42.28;;;7.40;99.90;;;;;;4954314;28;20046;-79
2024/03/31 02:11:00;;;;;;;56.83;39.95;;;7.40;99.90;;;;;;4971769;28;20467;-79
2024/03/31 02:13:26;;;;;;;56.60;40.65;;;7.30;99.90;;;;;;4968757;28;20046;-78
2024/03/31 02:15:51;;;;;;;47.38;35.28;;;7.20;99.90;;;;;;4952369;28;20031;-78
2024/03/31 02:18:17;;;;;;;49.50;37.45;;;7.20;99.90;;;;;;4965600;28;20129;-78
2024/03/31 02:20:49;;;;;;;63.10;44.10;;;7.10;99.90;;;;;;4968801;28;20042;-77
2024/03/31 02:23:14;;;;;;;59.42;42.83;;;6.90;99.90;;;;;;4970036;28;20042;-78
2024/03/31 02:25:40;;;;;;;57.72;43.40;;;7.00;99.90;;;;;;4985793;28;20034;-78
2024/03/31 02:28:05;;;;;;;58.25;43.42;;;7.10;99.90;;;;;;4966651;28;20451;-78
2024/03/31 02:30:31;;;;;;;56.28;43.88;;;7.10;99.90;;;;;;4969393;28;20378;-78
2024/03/31 02:32:57;;;;;;;62.85;44.63;;;7.10;99.90;;;;;;4969771;28;20035;-78
2024/03/31 02:35:22;;;;;;;60.00;44.05;;;7.10;99.90;;;;;;4969000;28;20026;-78
2024/03/31 02:37:48;;;;;;;63.97;47.25;;;7.10;99.90;;;;;;4962566;28;20027;-78
2024/03/31 02:40:14;;;;;;;48.33;34.28;;;7.10;99.90;;;;;;4970844;28;20056;-78
2024/03/31 02:42:40;;;;;;;35.97;27.48;;;7.10;99.90;;;;;;4971281;28;20993;-79
2024/03/31 02:45:06;;;;;;;56.47;37.85;;;7.20;99.90;;;;;;4970621;28;20034;-78
2024/03/31 02:47:31;;;;;;;55.42;39.53;;;7.20;99.90;;;;;;4953782;28;20039;-78
2024/03/31 02:49:57;;;;;;;54.88;39.22;;;7.20;99.90;;;;;;4971322;28;20049;-78
2024/03/31 02:52:22;;;;;;;54.83;38.20;;;7.10;99.90;;;;;;4952750;28;20053;-78
2024/03/31 02:54:48;;;;;;;50.80;38.13;;;7.10;99.90;;;;;;4970163;28;20030;-78
2024/03/31 02:57:13;;;;;;;56.15;41.35;;;7.10;99.90;;;;;;4955136;28;20164;-79
2024/03/31 02:59:39;;;;;;;56.63;41.13;;;7.10;99.90;;;;;;4981143;28;20091;-78
2024/03/31 03:02:04;;;;;;;55.22;40.15;;;7.10;99.90;;;;;;4968662;28;20045;-78
2024/03/31 03:04:30;;;;;;;39.75;27.92;;;7.10;99.90;;;;;;4984857;28;20164;-78
2024/03/31 03:06:55;;;;;;;57.40;39.13;;;7.10;99.90;;;;;;4986156;28;20033;-77
2024/03/31 03:09:22;;;;;;;60.05;40.22;;;7.20;99.90;;;;;;4983754;28;20076;-76
2024/03/31 03:11:47;;;;;;;55.42;41.20;;;7.10;99.90;;;;;;4995142;28;20528;-78
2024/03/31 03:14:13;;;;;;;56.85;43.22;;;7.10;99.90;;;;;;4987497;28;20030;-79
2024/03/31 03:16:39;;;;;;;62.55;45.30;;;7.10;99.90;;;;;;4969147;28;20042;-79
2024/03/31 03:19:05;;;;;;;60.53;44.40;;;7.10;99.90;;;;;;4987714;28;20523;-78
2024/03/31 03:21:31;;;;;;;55.08;40.03;;;7.10;99.90;;;;;;4968912;28;20046;-78
2024/03/31 03:23:56;;;;;;;65.80;45.60;;;7.00;99.90;;;;;;4953146;28;20030;-79
2024/03/31 03:26:22;;;;;;;64.57;46.65;;;7.00;99.90;;;;;;4981965;28;20121;-79
2024/03/31 03:28:47;;;;;;;62.92;45.35;;;7.10;99.90;;;;;;4970545;28;20488;-78
2024/03/31 03:31:13;;;;;;;64.63;48.00;;;7.10;99.90;;;;;;4969385;28;20603;-79
2024/03/31 03:33:39;;;;;;;59.83;46.15;;;7.00;99.90;;;;;;4967204;28;20154;-79
2024/03/31 03:36:05;;;;;;;57.72;45.35;;;7.00;99.90;;;;;;4970466;28;20056;-78
2024/03/31 03:38:31;;;;;;;63.05;46.33;;;7.10;99.90;;;;;;4983786;28;20038;-78
2024/03/31 03:40:56;;;;;;;57.78;44.80;;;7.10;99.90;;;;;;4983852;28;20046;-78
2024/03/31 03:43:22;;;;;;;58.30;43.58;;;7.10;99.90;;;;;;4966044;28;20540;-77
2024/03/31 03:45:47;;;;;;;64.35;46.58;;;7.10;99.90;;;;;;4954729;28;20303;-78
2024/03/31 03:48:13;;;;;;;71.43;49.97;;;7.10;99.90;;;;;;4955910;28;20034;-78
2024/03/31 03:50:39;;;;;;;67.80;50.15;;;7.10;99.90;;;;;;4967922;28;20030;-78
2024/03/31 03:53:05;;;;;;;64.25;48.95;;;7.30;99.90;;;;;;4973746;28;20027;-78
2024/03/31 03:55:30;;;;;;;64.95;50.33;;;7.30;99.90;;;;;;4969576;28;20779;-78
2024/03/31 03:57:56;;;;;;;64.85;47.40;;;7.40;99.90;;;;;;4968598;28;20137;-79
2024/03/31 04:00:21;;;;;;;67.95;50.15;;;7.40;99.90;;;;;;4990632;28;20042;-78
2024/03/31 04:02:48;;;;;;;64.00;48.92;;;7.40;99.90;;;;;;4986594;28;20493;-79
2024/03/31 04:05:16;;;;;;;66.43;50.58;;;7.40;99.90;;;;;;4970231;28;20133;-75
2024/03/31 04:07:41;;;;;;;63.78;48.08;;;7.40;99.90;;;;;;4984931;28;20050;-75
2024/03/31 04:10:07;;;;;;;59.42;42.90;;;7.40;99.90;;;;;;4989501;28;20121;-79
2024/03/31 04:12:32;;;;;;;56.13;42.05;;;7.40;99.90;;;;;;4986236;28;20488;-79
2024/03/31 04:14:59;;;;;;;53.25;38.45;;;7.50;99.90;;;;;;4973809;28;20757;-79
2024/03/31 04:17:24;;;;;;;67.70;51.88;;;7.50;99.90;;;;;;4974729;28;20118;-77
2024/03/31 04:19:51;;;;;;;64.25;49.20;;;7.50;99.90;;;;;;4966767;28;20185;-78
2024/03/31 04:22:17;;;;;;;64.45;50.50;;;7.50;99.90;;;;;;4986985;28;20480;-78
2024/03/31 04:24:42;;;;;;;69.40;50.70;;;7.50;99.90;;;;;;4975015;28;20090;-75
2024/03/31 04:27:08;;;;;;;60.75;47.53;;;7.50;99.90;;;;;;4984247;28;20132;-78
2024/03/31 04:29:33;;;;;;;63.42;49.90;;;7.50;99.90;;;;;;4965222;28;20148;-76
2024/03/31 04:31:59;;;;;;;64.70;48.33;;;7.50;99.90;;;;;;4984637;28;20046;-75
2024/03/31 04:34:28;;;;;;;66.75;49.00;;;7.50;99.90;;;;;;4972893;28;20038;-77
2024/03/31 04:36:54;;;;;;;61.08;46.38;;;7.50;99.90;;;;;;4987960;28;20041;-78
2024/03/31 04:39:19;;;;;;;68.78;47.08;;;7.50;99.90;;;;;;4975284;28;20049;-78
2024/03/31 04:41:45;;;;;;;70.63;51.30;;;7.50;99.90;;;;;;4987645;28;20062;-78
2024/03/31 04:44:17;;;;;;;65.97;48.67;;;7.50;99.90;;;;;;4991291;28;20408;-78
2024/03/31 04:46:46;;;;;;;67.13;47.83;;;7.50;99.90;;;;;;4967482;28;20034;-77
2024/03/31 04:49:11;;;;;;;64.70;44.38;;;7.60;99.90;;;;;;4973071;28;20481;-77
2024/03/31 04:51:37;;;;;;;72.45;46.45;;;7.60;99.90;;;;;;4984847;28;20046;-78
2024/03/31 04:54:03;;;;;;;62.58;46.78;;;7.50;99.90;;;;;;4971946;28;20030;-78
2024/03/31 04:56:28;;;;;;;53.95;37.38;;;7.60;99.90;;;;;;4955239;28;20041;-78
2024/03/31 04:58:54;;;;;;;51.45;38.92;;;7.60;99.90;;;;;;4965699;28;20027;-78
2024/03/31 05:01:19;;;;;;;63.80;43.47;;;7.70;99.90;;;;;;4982701;28;20043;-78
2024/03/31 05:03:45;;;;;;;66.18;46.90;;;7.60;99.90;;;;;;4956120;28;20037;-78
2024/03/31 05:06:10;;;;;;;68.47;47.17;;;7.60;99.90;;;;;;4954264;28;20039;-77
2024/03/31 05:08:36;;;;;;;62.58;44.28;;;7.60;99.90;;;;;;4969580;28;20062;-78
2024/03/31 05:11:02;;;;;;;66.50;43.10;;;7.70;99.90;;;;;;4973610;28;20097;-78
2024/03/31 05:13:29;;;;;;;59.65;41.38;;;7.60;99.90;;;;;;4986591;28;20046;-78
2024/03/31 05:16:01;;;;;;;53.92;37.75;;;7.70;99.90;;;;;;4988938;28;20411;-78
2024/03/31 05:18:27;;;;;;;64.03;45.83;;;7.80;99.90;;;;;;4967881;28;20042;-78
2024/03/31 05:21:05;;;;;;;69.45;47.65;;;7.70;99.90;;;;;;4956016;28;20057;-77
2024/03/31 05:23:31;;;;;;;64.38;46.67;;;7.70;99.90;;;;;;4968952;28;20050;-77
2024/03/31 05:25:57;;;;;;;61.58;43.97;;;7.70;99.90;;;;;;4955728;28;20058;-78
2024/03/31 05:28:23;;;;;;;52.78;35.75;;;7.70;99.90;;;;;;4982465;28;20200;-77
2024/03/31 05:30:49;;;;;;;39.35;28.92;;;7.80;99.90;;;;;;4970420;28;20109;-78
2024/03/31 05:33:14;;;;;;;29.85;21.63;;;7.80;99.90;;;;;;4985181;28;20050;-78
2024/03/31 05:35:40;;;;;;;40.13;27.30;;;7.90;99.90;;;;;;4969149;28;20054;-77
2024/03/31 05:38:08;;;;;;;43.50;30.17;;;7.80;99.90;;;;;;4965155;28;20037;-78
2024/03/31 05:40:33;;;;;;;40.20;23.83;;;7.80;99.90;;;;;;4980512;28;20049;-78
2024/03/31 05:42:59;;;;;;;26.42;18.25;;;7.80;99.90;;;;;;4982430;28;20117;-77
2024/03/31 05:45:24;;;;;;;32.83;22.50;;;7.90;99.90;;;;;;4952624;28;20023;-77
2024/03/31 05:47:57;;;;;;;30.55;21.75;;;7.90;99.90;;;;;;4964977;28;20085;-77
2024/03/31 05:50:23;;;;;;;32.35;18.98;;;7.90;99.90;;;;;;4985645;28;20118;-77
2024/03/31 05:52:49;;;;;;;33.75;21.45;;;7.90;99.90;;;;;;4985400;28;20038;-78
2024/03/31 05:55:21;;;;;;;36.53;21.95;;;8.00;99.90;;;;;;4986932;28;20026;-77
2024/03/31 05:57:47;;;;;;;34.97;24.08;;;8.00;99.90;;;;;;4968460;28;20059;-78
2024/03/31 06:00:13;;;;;;;45.88;28.88;;;8.00;99.90;;;;;;4965677;28;20042;-77
2024/03/31 06:02:38;;;;;;;38.85;31.10;;;8.00;99.90;;;;;;4951042;28;20436;-78
2024/03/31 06:05:04;;;;;;;44.35;31.10;;;8.00;99.90;;;;;;4956689;28;20034;-77
2024/03/31 06:07:31;;;;;;;40.33;26.20;;;8.00;99.90;;;;;;4968360;28;20030;-78
2024/03/31 06:09:57;;;;;;;40.60;26.60;;;8.10;99.90;;;;;;4963746;28;20034;-77
2024/03/31 06:12:23;;;;;;;35.65;24.40;;;8.10;99.90;;;;;;4986994;28;20393;-78
2024/03/31 06:14:48;;;;;;;33.28;21.40;;;8.20;99.90;;;;;;4952923;28;20030;-79
2024/03/31 06:17:14;;;;;;;33.95;21.92;;;8.20;99.90;;;;;;4968901;28;20045;-78
2024/03/31 06:19:39;;;;;;;27.90;18.90;;;8.30;99.90;;;;;;4982141;28;20048;-77
2024/03/31 06:22:05;;;;;;;31.67;21.00;;;8.30;99.90;;;;;;4965350;28;20213;-78
2024/03/31 06:24:30;;;;;;;33.70;21.92;;;8.30;99.90;;;;;;4968771;28;20081;-78
2024/03/31 06:26:57;;;;;;;36.85;23.35;;;8.30;99.90;;;;;;4981183;28;20200;-78
2024/03/31 06:29:23;;;;;;;33.95;21.88;;;8.40;99.90;;;;;;4984776;28;20045;-78
2024/03/31 06:31:48;;;;;;;32.45;20.95;;;8.40;99.90;;;;;;4983528;28;20073;-78
2024/03/31 06:34:14;;;;;;;34.25;18.77;;;8.50;99.90;;;;;;4985797;28;20022;-78
2024/03/31 06:36:39;;;;;;;34.70;18.83;;;8.60;99.90;;;;;;4966653;28;20431;-77
2024/03/31 06:39:05;;;;;;;28.95;18.63;;;8.60;99.90;;;;;;4959307;28;20567;-79
2024/03/31 06:41:30;;;;;;;26.48;16.65;;;8.60;99.90;;;;;;4981460;28;20536;-78
2024/03/31 06:43:56;;;;;;;28.50;18.45;;;8.70;99.90;;;;;;4985539;28;20137;-78
2024/03/31 06:46:21;;;;;;;26.67;14.80;;;8.70;99.90;;;;;;4954756;28;20094;-78
2024/03/31 06:48:48;;;;;;;32.50;16.52;;;8.80;99.90;;;;;;4982757;28;20034;-78
2024/03/31 06:51:13;;;;;;;21.95;12.38;;;8.80;99.90;;;;;;4967979;28;20073;-78
2024/03/31 06:53:39;;;;;;;24.70;12.77;;;8.80;99.90;;;;;;4968977;28;20100;-79
2024/03/31 06:56:05;;;;;;;26.30;12.52;;;8.90;99.90;;;;;;4984616;28;20041;-78
2024/03/31 06:58:30;;;;;;;25.15;10.68;;;9.00;99.90;;;;;;4985572;28;20054;-78
2024/03/31 07:00:57;;;;;;;21.75;9.50;;;9.00;99.90;;;;;;4960898;28;20054;-78
2024/03/31 07:03:22;;;;;;;21.63;11.32;;;9.10;99.90;;;;;;4965747;28;20034;-78
2024/03/31 07:05:48;;;;;;;26.13;10.95;;;9.20;99.90;;;;;;4978460;28;20496;-77
2024/03/31 07:08:13;;;;;;;26.05;11.25;;;9.30;99.90;;;;;;4981754;28;20038;-77
2024/03/31 07:10:41;;;;;;;22.65;9.88;;;9.30;99.90;;;;;;4981646;28;20034;-79
2024/03/31 07:13:07;;;;;;;23.45;10.15;;;9.40;99.90;;;;;;4966015;28;20030;-78
2024/03/31 07:15:32;;;;;;;23.33;10.45;;;9.60;99.90;;;;;;4980044;28;20031;-78
2024/03/31 07:18:05;;;;;;;23.08;10.45;;;9.60;99.90;;;;;;4965318;28;20040;-78
2024/03/31 07:20:31;;;;;;;22.45;10.05;;;9.70;99.90;;;;;;4980135;28;20038;-78
2024/03/31 07:22:56;;;;;;;19.70;8.85;;;9.80;99.90;;;;;;4959041;28;20042;-77
2024/03/31 07:25:22;;;;;;;17.67;7.65;;;9.90;99.90;;;;;;4959356;28;20038;-78
2024/03/31 07:27:47;;;;;;;26.83;8.55;;;10.10;99.90;;;;;;4983816;28;20038;-78
2024/03/31 07:30:13;;;;;;;21.00;7.63;;;10.20;99.90;;;;;;4966742;28;20026;-78
2024/03/31 07:32:38;;;;;;;14.63;7.57;;;10.30;99.90;;;;;;4969444;28;20030;-78
2024/03/31 07:35:04;;;;;;;12.68;8.18;;;10.30;99.90;;;;;;4951918;28;20106;-78
2024/03/31 07:37:30;;;;;;;21.77;7.30;;;10.30;99.90;;;;;;4964004;28;20039;-78
2024/03/31 07:39:55;;;;;;;15.50;6.68;;;10.40;99.90;;;;;;4965955;28;20023;-79
2024/03/31 07:42:21;;;;;;;15.50;6.43;;;10.50;99.90;;;;;;4970606;28;20045;-78
2024/03/31 07:44:48;;;;;;;18.85;7.35;;;10.60;99.90;;;;;;4972535;28;20461;-80
2024/03/31 07:47:13;;;;;;;19.05;6.75;;;10.80;99.90;;;;;;4970269;28;20365;-78
2024/03/31 07:49:39;;;;;;;14.77;7.65;;;10.80;99.90;;;;;;4972439;28;20042;-78
2024/03/31 07:52:05;;;;;;;17.50;7.90;;;10.90;99.90;;;;;;4985155;28;20097;-78
2024/03/31 07:54:30;;;;;;;16.33;5.60;;;11.10;99.90;;;;;;4970985;28;20042;-78
2024/03/31 07:56:56;;;;;;;12.48;4.75;;;11.30;99.90;;;;;;4970848;28;20579;-79
2024/03/31 07:59:24;;;;;;;14.18;7.38;;;11.60;99.90;;;;;;4955917;28;20033;-78
2024/03/31 08:01:49;;;;;;;18.40;6.05;;;11.50;99.90;;;;;;4969981;28;20511;-78
2024/03/31 08:04:15;;;;;;;15.20;5.82;;;11.60;99.90;;;;;;4982725;28;20026;-79
2024/03/31 08:06:40;;;;;;;14.73;4.38;;;11.70;99.90;;;;;;4976196;28;20077;-79
2024/03/31 08:09:06;;;;;;;12.15;4.53;;;11.70;99.90;;;;;;4971764;28;20096;-79
2024/03/31 08:11:31;;;;;;;10.88;4.95;;;11.80;99.90;;;;;;4985789;28;20970;-79
2024/03/31 08:13:57;;;;;;;14.00;4.28;;;11.80;99.90;;;;;;4985002;28;20018;-80
2024/03/31 08:16:23;;;;;;;17.83;3.47;;;11.90;99.90;;;;;;4984505;28;20172;-78
2024/03/31 08:18:48;;;;;;;11.30;3.47;;;12.00;99.90;;;;;;4986894;28;20034;-79
2024/03/31 08:21:14;;;;;;;17.92;3.80;;;12.10;99.90;;;;;;4968478;28;20030;-79
2024/03/31 08:23:40;;;;;;;15.30;3.53;;;12.30;99.90;;;;;;4954844;28;20037;-78
2024/03/31 08:26:05;;;;;;;22.83;4.30;;;12.50;99.90;;;;;;4956362;28;20038;-80
2024/03/31 08:28:31;;;;;;;10.07;3.33;;;12.50;99.90;;;;;;4954948;28;20035;-80
2024/03/31 08:30:57;;;;;;;16.08;5.53;;;12.50;99.90;;;;;;4970065;28;21851;-80
2024/03/31 08:33:22;;;;;;;8.55;4.07;;;12.70;99.90;;;;;;4967092;28;20056;-79
2024/03/31 08:35:54;;;;;;;12.80;3.08;;;12.70;99.90;;;;;;4970114;28;20092;-79
2024/03/31 08:38:20;;;;;;;10.50;3.65;;;12.90;99.90;;;;;;4956003;28;20027;-79
2024/03/31 08:40:47;;;;;;;9.38;4.22;;;13.00;99.90;;;;;;4989852;28;20038;-80
2024/03/31 08:43:13;;;;;;;9.82;3.10;;;13.10;99.90;;;;;;4969653;28;20036;-80
2024/03/31 08:45:38;;;;;;;9.27;2.78;;;13.30;99.90;;;;;;4979814;28;20031;-79
2024/03/31 08:48:04;;;;;;;17.77;3.55;;;13.30;99.90;;;;;;4968834;28;20079;-79
2024/03/31 08:50:30;;;;;;;8.70;2.05;;;13.30;99.90;;;;;;4986258;28;20037;-80
2024/03/31 08:52:55;;;;;;;10.55;3.00;;;13.70;99.90;;;;;;4987253;28;20037;-79
2024/03/31 08:55:21;;;;;;;8.02;1.92;;;13.70;99.90;;;;;;4955988;28;20156;-80
2024/03/31 08:57:47;;;;;;;10.05;2.35;;;13.80;99.90;;;;;;4970298;28;20030;-80
2024/03/31 09:00:13;;;;;;;10.40;2.67;;;13.90;99.90;;;;;;4972654;28;20054;-79
2024/03/31 09:02:39;;;;;;;10.18;2.38;;;14.10;99.90;;;;;;4971866;28;20441;-80
2024/03/31 09:05:05;;;;;;;9.50;2.30;;;14.20;99.90;;;;;;4956444;28;20033;-79
2024/03/31 09:07:35;;;;;;;6.80;2.03;;;14.30;99.90;;;;;;4975386;28;20031;-80
2024/03/31 09:10:03;;;;;;;16.90;2.85;;;14.40;99.90;;;;;;4955150;28;20066;-80
2024/03/31 09:12:28;;;;;;;13.93;3.20;;;14.60;99.90;;;;;;4957429;28;20042;-80
2024/03/31 09:14:54;;;;;;;10.43;2.15;;;14.70;99.90;;;;;;4988143;28;20037;-81
2024/03/31 09:17:19;;;;;;;11.35;2.50;;;14.80;99.90;;;;;;4974076;28;20439;-80
2024/03/31 09:19:45;;;;;;;11.05;2.05;;;14.70;99.90;;;;;;4984019;28;20510;-80
2024/03/31 09:22:12;;;;;;;12.50;2.20;;;14.90;99.90;;;;;;4971631;28;20483;-80
2024/03/31 09:24:38;;;;;;;10.88;2.70;;;15.00;99.90;;;;;;4988671;28;20037;-80
2024/03/31 09:27:04;;;;;;;13.57;2.22;;;15.20;99.90;;;;;;4975631;28;20034;-79
2024/03/31 09:29:34;;;;;;;8.20;2.35;;;15.40;99.90;;;;;;4986737;28;20404;-79
2024/03/31 09:32:07;;;;;;;8.70;1.55;;;15.60;99.90;;;;;;4986347;28;20046;-77
2024/03/31 09:34:32;;;;;;;9.57;1.80;;;15.50;99.90;;;;;;4988769;28;20038;-79
2024/03/31 09:36:58;;;;;;;11.07;2.25;;;15.30;99.90;;;;;;4974280;28;20034;-79
2024/03/31 09:39:24;;;;;;;8.98;1.95;;;15.50;99.90;;;;;;4975945;28;20034;-79
2024/03/31 09:41:53;;;;;;;5.57;1.35;;;15.50;99.90;;;;;;4973630;28;20113;-77
2024/03/31 09:44:19;;;;;;;15.80;2.20;;;16.10;99.90;;;;;;4967227;28;20544;-79
2024/03/31 09:46:45;;;;;;;11.05;2.47;;;16.30;99.90;;;;;;4966778;28;20056;-79
2024/03/31 09:49:10;;;;;;;10.85;1.73;;;16.00;99.90;;;;;;4958821;28;20452;-80
2024/03/31 09:51:36;;;;;;;12.68;2.55;;;16.20;99.90;;;;;;4970230;28;20038;-79
2024/03/31 09:54:31;;;;;;;8.35;1.27;;;16.40;99.90;;;;;;4976793;28;20508;-79
2024/03/31 09:57:06;;;;;;;9.45;1.80;;;16.40;99.90;;;;;;4987016;28;20026;-79
2024/03/31 09:59:34;;;;;;;10.98;2.47;;;16.50;99.90;;;;;;4970378;28;20030;-80
2024/03/31 10:01:59;;;;;;;11.93;1.85;;;16.30;99.90;;;;;;4960435;28;20040;-80
2024/03/31 10:05:06;;;;;;;13.25;2.85;;;16.10;99.90;;;;;;4954340;28;20117;-79
2024/03/31 10:07:32;;;;;;;9.02;1.67;;;16.80;99.90;;;;;;4985941;28;20042;-79
2024/03/31 10:09:57;;;;;;;7.13;1.70;;;16.50;99.90;;;;;;4954655;28;20979;-79
2024/03/31 10:12:23;;;;;;;15.32;2.15;;;16.50;99.90;;;;;;4983505;28;20074;-79
2024/03/31 10:14:48;;;;;;;9.45;1.85;;;17.00;99.90;;;;;;4956742;28;20672;-79
2024/03/31 10:17:14;;;;;;;7.53;1.88;;;16.80;99.90;;;;;;4985454;28;20115;-79
2024/03/31 10:19:40;;;;;;;12.80;2.42;;;16.70;99.90;;;;;;4987039;28;20031;-79
2024/03/31 10:22:06;;;;;;;7.60;2.30;;;16.70;99.90;;;;;;4981581;28;20038;-79
2024/03/31 10:24:32;;;;;;;9.70;2.72;;;17.00;99.90;;;;;;4989595;28;20117;-79
2024/03/31 10:26:57;;;;;;;10.90;1.63;;;17.00;99.90;;;;;;4974675;28;20566;-78
2024/03/31 10:29:23;;;;;;;12.13;2.30;;;17.10;99.90;;;;;;4972860;28;20367;-79
2024/03/31 10:31:48;;;;;;;10.02;2.00;;;16.80;99.90;;;;;;4969961;28;20062;-79
2024/03/31 10:34:14;;;;;;;7.68;1.42;;;17.00;99.90;;;;;;4952792;28;20026;-78
2024/03/31 10:36:40;;;;;;;12.75;1.73;;;17.20;99.90;;;;;;4985862;28;20451;-79
2024/03/31 10:39:08;;;;;;;18.05;1.60;;;17.00;99.90;;;;;;4974768;28;20588;-79
2024/03/31 10:41:34;;;;;;;11.63;2.20;;;17.20;99.90;;;;;;4970150;28;20480;-79
2024/03/31 10:43:59;;;;;;;13.15;1.20;;;17.20;99.90;;;;;;4957520;28;20027;-79
2024/03/31 10:46:25;;;;;;;8.43;2.05;;;17.50;99.90;;;;;;4971733;28;20045;-77
2024/03/31 10:48:57;;;;;;;8.35;1.70;;;17.40;99.90;;;;;;4981929;28;20045;-76
2024/03/31 10:51:23;;;;;;;12.98;2.13;;;17.50;99.90;;;;;;4988745;28;20045;-79
2024/03/31 10:53:49;;;;;;;8.93;1.95;;;17.60;99.90;;;;;;4972858;28;20066;-80
2024/03/31 10:56:15;;;;;;;9.38;1.90;;;17.50;99.90;;;;;;4985947;28;20571;-80
2024/03/31 10:58:41;;;;;;;6.00;1.45;;;17.40;99.90;;;;;;4973180;28;20030;-80
2024/03/31 11:01:06;;;;;;;5.25;1.20;;;17.30;99.90;;;;;;4970819;28;20031;-79
2024/03/31 11:03:32;;;;;;;8.95;1.85;;;17.90;99.90;;;;;;4974303;28;20084;-80
2024/03/31 11:05:58;;;;;;;10.88;1.70;;;18.00;99.90;;;;;;4984747;28;20392;-80
2024/03/31 11:08:24;;;;;;;10.05;1.48;;;18.30;99.90;;;;;;4968945;28;20037;-78
2024/03/31 11:10:50;;;;;;;10.57;2.05;;;18.60;99.90;;;;;;4984343;28;20034;-77
2024/03/31 11:13:17;;;;;;;7.68;1.00;;;19.10;99.90;;;;;;4966429;28;20031;-80
2024/03/31 11:15:43;;;;;;;12.02;2.00;;;19.40;99.90;;;;;;4985530;28;20041;-79
2024/03/31 11:18:09;;;;;;;11.35;1.20;;;18.90;99.90;;;;;;4971196;28;20078;-79
2024/03/31 11:20:44;;;;;;;9.68;1.48;;;19.20;99.90;;;;;;4965166;28;20039;-80
2024/03/31 11:23:14;;;;;;;7.28;1.40;;;19.60;99.90;;;;;;4952659;28;20035;-80
2024/03/31 11:25:40;;;;;;;5.50;1.17;;;19.40;99.90;;;;;;4969682;28;20089;-80
2024/03/31 11:28:09;;;;;;;10.65;1.35;;;19.20;99.90;;;;;;4984713;28;20057;-80
2024/03/31 11:30:35;;;;;;;12.00;2.90;;;19.10;99.90;;;;;;4970131;28;20034;-81
2024/03/31 11:33:03;;;;;;;11.70;1.45;;;19.30;99.90;;;;;;4969749;28;20034;-80
2024/03/31 11:35:28;;;;;;;10.77;1.27;;;19.20;99.90;;;;;;4967903;28;20408;-80
2024/03/31 11:37:54;;;;;;;9.80;1.25;;;19.40;99.90;;;;;;4982707;28;20034;-81
2024/03/31 11:40:20;;;;;;;9.93;1.73;;;19.50;99.90;;;;;;4970934;28;20034;-81
2024/03/31 11:42:46;;;;;;;8.30;1.45;;;19.40;99.90;;;;;;4983766;28;20073;-82
2024/03/31 11:45:11;;;;;;;7.28;1.40;;;19.60;99.90;;;;;;4985274;28;20135;-79
2024/03/31 11:47:37;;;;;;;9.77;2.72;;;19.90;99.90;;;;;;4955494;28;20743;-82
2024/03/31 11:50:03;;;;;;;12.20;1.92;;;20.00;99.90;;;;;;4965430;28;20034;-82
2024/03/31 11:52:28;;;;;;;10.82;1.65;;;20.10;99.90;;;;;;4957942;28;20046;-82
2024/03/31 11:54:56;;;;;;;6.97;1.60;;;20.10;99.90;;;;;;4970255;28;20069;-82
2024/03/31 11:57:22;;;;;;;6.22;1.27;;;20.10;99.90;;;;;;4957524;28;20049;-82
2024/03/31 11:59:55;;;;;;;11.57;1.23;;;20.20;99.90;;;;;;4954038;28;20035;-82
2024/03/31 12:02:21;;;;;;;10.95;2.13;;;20.30;99.90;;;;;;4969957;28;20054;-81
2024/03/31 12:04:49;;;;;;;6.28;1.15;;;20.30;99.90;;;;;;4994007;28;20508;-81
2024/03/31 12:07:15;;;;;;;9.65;1.23;;;20.30;99.90;;;;;;4988200;28;20133;-81
2024/03/31 12:09:41;;;;;;;9.93;1.83;;;20.50;99.90;;;;;;5003961;28;20077;-82
2024/03/31 12:12:07;;;;;;;5.45;0.90;;;20.80;99.90;;;;;;5005161;28;20557;-82
2024/03/31 12:14:32;;;;;;;9.40;1.40;;;20.80;99.90;;;;;;4988031;28;20033;-82
2024/03/31 12:16:58;;;;;;;9.73;3.08;;;20.80;99.90;;;;;;5003825;28;20046;-82
2024/03/31 12:19:23;;;;;;;11.82;1.42;;;20.70;99.90;;;;;;4990581;28;20057;-82
2024/03/31 12:21:49;;;;;;;8.20;1.73;;;20.80;99.90;;;;;;4989185;28;20033;-82
2024/03/31 12:24:14;;;;;;;12.50;1.90;;;20.90;99.90;;;;;;4994015;28;20041;-82
2024/03/31 12:26:41;;;;;;;9.73;1.10;;;20.90;99.90;;;;;;5005943;28;20597;-82
2024/03/31 12:29:07;;;;;;;3.67;1.05;;;21.00;99.90;;;;;;4995440;28;20038;-83
2024/03/31 12:31:32;;;;;;;12.25;2.75;;;21.10;99.90;;;;;;5009901;28;20487;-83
2024/03/31 12:34:06;;;;;;;11.75;1.60;;;21.20;99.90;;;;;;4993470;28;20041;-84